This is the latest recevied weather packets stored in our database for station/object SP8C-13. If no packets are shown the sender has not sent any weather packets the latest 10 day(s).
| Time | Temp. | Humidity | Pressure | Rain* | Wind** | Luminosity | Snow |
|---|---|---|---|---|---|---|---|
| 1777529620 | 7.22° C | 50% | 1030.9 hPa | - | - | - | - |
| 1777527819 | 5° C | 55% | 1030.8 hPa | - | - | - | - |
| 1777526017 | 3.33° C | 57% | 1030.7 hPa | - | - | - | - |
| 1777524217 | 3.89° C | 54% | 1030.5 hPa | - | - | - | - |
| 1777522416 | 1.67° C | 59% | 1030.4 hPa | - | - | - | - |
| 1777520616 | -2.22° C | 67% | 1030.4 hPa | - | - | - | - |
| 1777518816 | -5° C | 76% | 1030.1 hPa | - | - | - | - |
| 1777517016 | -4.44° C | 75% | 1030.1 hPa | - | - | - | - |
| 1777515216 | -4.44° C | 75% | 1030 hPa | - | - | - | - |
| 1777513416 | -4.44° C | 74% | 1029.8 hPa | - | - | - | - |
| 1777511616 | -3.89° C | 72% | 1029.7 hPa | - | - | - | - |
| 1777509816 | -3.89° C | 72% | 1029.7 hPa | - | - | - | - |
| 1777508015 | -3.33° C | 71% | 1029.8 hPa | - | - | - | - |
| 1777506215 | -2.78° C | 70% | 1029.8 hPa | - | - | - | - |
| 1777504415 | -2.22° C | 68% | 1029.7 hPa | - | - | - | - |
| 1777502615 | -2.22° C | 68% | 1029.6 hPa | - | - | - | - |
| 1777500815 | -1.67° C | 66% | 1029.5 hPa | - | - | - | - |
| 1777499015 | -1.11° C | 65% | 1029.4 hPa | - | - | - | - |
| 1777497215 | -0.56° C | 63% | 1029.1 hPa | - | - | - | - |
| 1777495415 | 0° C | 61% | 1028.9 hPa | - | - | - | - |
| 1777493615 | 0° C | 59% | 1028.8 hPa | - | - | - | - |
| 1777491815 | 1.11° C | 57% | 1028.6 hPa | - | - | - | - |
| 1777490014 | 1.67° C | 55% | 1028.3 hPa | - | - | - | - |
| 1777488214 | 2.22° C | 54% | 1028.3 hPa | - | - | - | - |
| 1777486414 | 3.33° C | 52% | 1028.1 hPa | - | - | - | - |
* Rain since midnight (hover to see other rain measurements)
** Current wind speed in m/s (hover to see current wind gust speed)